sensor_id;sensor_type;location;lat;lon;timestamp;pressure;altitude;pressure_sealevel;temperature;humidity
65329;BME280;51941;52.210;5.158;2024-03-08T00:01:16;101939.19;;;1.98;79.14
65329;BME280;51941;52.210;5.158;2024-03-08T00:03:46;101931.91;;;1.85;78.94
65329;BME280;51941;52.210;5.158;2024-03-08T00:06:12;101924.66;;;1.90;78.96
65329;BME280;51941;52.210;5.158;2024-03-08T00:08:39;101922.50;;;1.92;78.86
65329;BME280;51941;52.210;5.158;2024-03-08T00:11:06;101922.00;;;1.90;78.86
65329;BME280;51941;52.210;5.158;2024-03-08T00:13:33;101920.91;;;1.67;79.73
65329;BME280;51941;52.210;5.158;2024-03-08T00:16:00;101910.13;;;1.83;78.90
65329;BME280;51941;52.210;5.158;2024-03-08T00:18:27;101915.22;;;1.79;79.01
65329;BME280;51941;52.210;5.158;2024-03-08T00:20:56;101915.44;;;1.83;78.75
65329;BME280;51941;52.210;5.158;2024-03-08T00:23:23;101903.81;;;1.78;79.00
65329;BME280;51941;52.210;5.158;2024-03-08T00:25:51;101911.78;;;1.78;78.80
65329;BME280;51941;52.210;5.158;2024-03-08T00:28:21;101905.69;;;1.78;78.56
65329;BME280;51941;52.210;5.158;2024-03-08T00:30:50;101911.53;;;1.75;78.57
65329;BME280;51941;52.210;5.158;2024-03-08T00:33:17;101913.47;;;1.69;78.89
65329;BME280;51941;52.210;5.158;2024-03-08T00:35:44;101904.44;;;1.70;78.69
65329;BME280;51941;52.210;5.158;2024-03-08T00:38:12;101907.66;;;1.67;78.60
65329;BME280;51941;52.210;5.158;2024-03-08T00:40:39;101899.69;;;1.67;78.57
65329;BME280;51941;52.210;5.158;2024-03-08T00:43:07;101895.19;;;1.68;78.60
65329;BME280;51941;52.210;5.158;2024-03-08T00:45:34;101898.66;;;1.63;78.61
65329;BME280;51941;52.210;5.158;2024-03-08T00:48:03;101898.44;;;1.60;78.83
65329;BME280;51941;52.210;5.158;2024-03-08T00:50:31;101895.56;;;1.56;78.52
65329;BME280;51941;52.210;5.158;2024-03-08T00:53:02;101894.47;;;1.57;78.53
65329;BME280;51941;52.210;5.158;2024-03-08T00:55:31;101889.44;;;1.55;78.46
65329;BME280;51941;52.210;5.158;2024-03-08T00:57:58;101889.44;;;1.55;78.40
65329;BME280;51941;52.210;5.158;2024-03-08T01:00:25;101883.97;;;1.47;78.62
65329;BME280;51941;52.210;5.158;2024-03-08T01:02:53;101883.50;;;1.40;79.09
65329;BME280;51941;52.210;5.158;2024-03-08T01:05:20;101874.41;;;1.46;78.92
65329;BME280;51941;52.210;5.158;2024-03-08T01:07:48;101882.09;;;1.47;78.77
65329;BME280;51941;52.210;5.158;2024-03-08T01:10:15;101868.84;;;1.47;78.58
65329;BME280;51941;52.210;5.158;2024-03-08T01:12:43;101868.28;;;1.50;78.64
65329;BME280;51941;52.210;5.158;2024-03-08T01:15:10;101868.06;;;1.47;78.46
65329;BME280;51941;52.210;5.158;2024-03-08T01:17:37;101858.34;;;1.37;78.36
65329;BME280;51941;52.210;5.158;2024-03-08T01:20:05;101851.66;;;1.40;78.47
65329;BME280;51941;52.210;5.158;2024-03-08T01:22:32;101845.84;;;1.37;78.21
65329;BME280;51941;52.210;5.158;2024-03-08T01:24:59;101849.84;;;1.35;78.33
65329;BME280;51941;52.210;5.158;2024-03-08T01:27:26;101844.56;;;1.35;78.43
65329;BME280;51941;52.210;5.158;2024-03-08T01:29:55;101845.59;;;1.34;78.32
65329;BME280;51941;52.210;5.158;2024-03-08T01:32:22;101840.59;;;1.32;78.41
65329;BME280;51941;52.210;5.158;2024-03-08T01:34:49;101835.28;;;1.32;78.26
65329;BME280;51941;52.210;5.158;2024-03-08T01:37:16;101832.69;;;1.27;78.44
65329;BME280;51941;52.210;5.158;2024-03-08T01:39:43;101829.53;;;1.25;78.35
65329;BME280;51941;52.210;5.158;2024-03-08T01:42:09;101820.53;;;1.21;78.41
65329;BME280;51941;52.210;5.158;2024-03-08T01:44:38;101821.69;;;1.15;78.68
65329;BME280;51941;52.210;5.158;2024-03-08T01:47:06;101816.38;;;1.15;78.58
65329;BME280;51941;52.210;5.158;2024-03-08T01:49:34;101817.16;;;1.15;78.53
65329;BME280;51941;52.210;5.158;2024-03-08T01:52:00;101812.56;;;0.97;79.10
65329;BME280;51941;52.210;5.158;2024-03-08T01:54:28;101810.59;;;1.08;78.36
65329;BME280;51941;52.210;5.158;2024-03-08T01:56:56;101807.94;;;1.08;78.45
65329;BME280;51941;52.210;5.158;2024-03-08T01:59:24;101800.50;;;1.10;78.15
65329;BME280;51941;52.210;5.158;2024-03-08T02:01:55;101805.06;;;1.04;78.33
65329;BME280;51941;52.210;5.158;2024-03-08T02:04:23;101801.06;;;1.07;78.22
65329;BME280;51941;52.210;5.158;2024-03-08T02:06:50;101803.41;;;1.08;78.12
65329;BME280;51941;52.210;5.158;2024-03-08T02:09:17;101793.38;;;1.05;78.10
65329;BME280;51941;52.210;5.158;2024-03-08T02:11:45;101800.56;;;1.05;78.16
65329;BME280;51941;52.210;5.158;2024-03-08T02:14:12;101798.22;;;0.98;78.19
65329;BME280;51941;52.210;5.158;2024-03-08T02:16:39;101798.50;;;0.96;78.17
65329;BME280;51941;52.210;5.158;2024-03-08T02:19:06;101798.22;;;0.98;78.05
65329;BME280;51941;52.210;5.158;2024-03-08T02:21:36;101797.44;;;0.97;78.08
65329;BME280;51941;52.210;5.158;2024-03-08T02:24:06;101787.09;;;0.96;78.17
65329;BME280;51941;52.210;5.158;2024-03-08T02:26:32;101781.28;;;0.94;77.89
65329;BME280;51941;52.210;5.158;2024-03-08T02:28:59;101774.94;;;0.95;77.89
65329;BME280;51941;52.210;5.158;2024-03-08T02:31:26;101778.41;;;0.90;77.85
65329;BME280;51941;52.210;5.158;2024-03-08T02:33:53;101770.22;;;0.87;78.14
65329;BME280;51941;52.210;5.158;2024-03-08T02:36:20;101767.03;;;0.85;77.85
65329;BME280;51941;52.210;5.158;2024-03-08T02:38:48;101764.69;;;0.83;78.11
65329;BME280;51941;52.210;5.158;2024-03-08T02:41:15;101762.81;;;0.84;77.83
65329;BME280;51941;52.210;5.158;2024-03-08T02:43:43;101761.00;;;0.79;77.72
65329;BME280;51941;52.210;5.158;2024-03-08T02:46:11;101755.50;;;0.75;77.56
65329;BME280;51941;52.210;5.158;2024-03-08T02:48:37;101753.09;;;0.74;77.74
65329;BME280;51941;52.210;5.158;2024-03-08T02:51:05;101747.53;;;0.75;77.84
65329;BME280;51941;52.210;5.158;2024-03-08T02:53:32;101755.25;;;0.72;77.90
65329;BME280;51941;52.210;5.158;2024-03-08T02:56:02;101749.44;;;0.70;78.07
65329;BME280;51941;52.210;5.158;2024-03-08T02:58:30;101739.09;;;0.68;78.27
65329;BME280;51941;52.210;5.158;2024-03-08T03:00:57;101740.19;;;0.67;78.06
65329;BME280;51941;52.210;5.158;2024-03-08T03:03:24;101737.31;;;0.64;78.14
65329;BME280;51941;52.210;5.158;2024-03-08T03:05:52;101729.13;;;0.60;78.32
65329;BME280;51941;52.210;5.158;2024-03-08T03:08:21;101729.97;;;0.55;78.31
65329;BME280;51941;52.210;5.158;2024-03-08T03:10:48;101730.50;;;0.52;78.08
65329;BME280;51941;52.210;5.158;2024-03-08T03:13:16;101731.56;;;0.51;78.26
65329;BME280;51941;52.210;5.158;2024-03-08T03:15:46;101725.31;;;0.42;78.48
65329;BME280;51941;52.210;5.158;2024-03-08T03:18:13;101722.91;;;0.46;78.53
65329;BME280;51941;52.210;5.158;2024-03-08T03:20:41;101715.75;;;0.41;78.68
65329;BME280;51941;52.210;5.158;2024-03-08T03:23:08;101724.56;;;0.36;78.62
65329;BME280;51941;52.210;5.158;2024-03-08T03:25:35;101727.22;;;0.36;78.86
65329;BME280;51941;52.210;5.158;2024-03-08T03:28:04;101713.94;;;0.36;78.65
65329;BME280;51941;52.210;5.158;2024-03-08T03:30:34;101716.88;;;0.35;78.72
65329;BME280;51941;52.210;5.158;2024-03-08T03:33:01;101720.59;;;0.34;78.68
65329;BME280;51941;52.210;5.158;2024-03-08T03:35:32;101716.69;;;0.26;79.16
65329;BME280;51941;52.210;5.158;2024-03-08T03:37:59;101714.59;;;0.23;79.12
65329;BME280;51941;52.210;5.158;2024-03-08T03:40:32;101710.06;;;0.24;79.03
65329;BME280;51941;52.210;5.158;2024-03-08T03:42:59;101710.91;;;0.19;79.15
65329;BME280;51941;52.210;5.158;2024-03-08T03:45:27;101705.06;;;0.22;78.81
65329;BME280;51941;52.210;5.158;2024-03-08T03:47:55;101699.81;;;0.17;79.23
65329;BME280;51941;52.210;5.158;2024-03-08T03:50:22;101701.69;;;0.16;79.02
65329;BME280;51941;52.210;5.158;2024-03-08T03:52:49;101696.88;;;0.18;79.29
65329;BME280;51941;52.210;5.158;2024-03-08T03:55:19;101689.47;;;0.15;79.18
65329;BME280;51941;52.210;5.158;2024-03-08T03:57:47;101695.34;;;0.12;79.08
65329;BME280;51941;52.210;5.158;2024-03-08T04:00:15;101695.88;;;0.14;78.91
65329;BME280;51941;52.210;5.158;2024-03-08T04:02:42;101690.56;;;0.14;79.00
65329;BME280;51941;52.210;5.158;2024-03-08T04:05:11;101688.19;;;0.13;78.99
65329;BME280;51941;52.210;5.158;2024-03-08T04:07:38;101686.91;;;0.05;78.92
65329;BME280;51941;52.210;5.158;2024-03-08T04:10:07;101691.69;;;0.08;79.04
65329;BME280;51941;52.210;5.158;2024-03-08T04:12:35;101688.72;;;0.10;78.81
65329;BME280;51941;52.210;5.158;2024-03-08T04:15:03;101684.78;;;0.07;78.91
65329;BME280;51941;52.210;5.158;2024-03-08T04:17:32;101685.69;;;-0.08;79.19
65329;BME280;51941;52.210;5.158;2024-03-08T04:20:01;101679.50;;;0.02;78.97
65329;BME280;51941;52.210;5.158;2024-03-08T04:22:35;101680.03;;;0.04;78.97
65329;BME280;51941;52.210;5.158;2024-03-08T04:25:03;101685.13;;;0.01;78.85
65329;BME280;51941;52.210;5.158;2024-03-08T04:27:30;101674.22;;;0.02;78.74
65329;BME280;51941;52.210;5.158;2024-03-08T04:29:58;101674.00;;;-0.02;78.55
65329;BME280;51941;52.210;5.158;2024-03-08T04:32:25;101672.41;;;-0.03;78.84
65329;BME280;51941;52.210;5.158;2024-03-08T04:34:53;101670.03;;;-0.04;78.76
65329;BME280;51941;52.210;5.158;2024-03-08T04:37:20;101676.41;;;-0.05;78.57
65329;BME280;51941;52.210;5.158;2024-03-08T04:39:49;101671.91;;;-0.05;78.93
65329;BME280;51941;52.210;5.158;2024-03-08T04:42:16;101675.34;;;-0.04;78.63
65329;BME280;51941;52.210;5.158;2024-03-08T04:44:43;101667.66;;;-0.06;78.60
65329;BME280;51941;52.210;5.158;2024-03-08T04:47:11;101670.59;;;-0.07;78.47
65329;BME280;51941;52.210;5.158;2024-03-08T04:49:38;101661.34;;;-0.10;78.50
65329;BME280;51941;52.210;5.158;2024-03-08T04:52:05;101669.78;;;-0.08;78.52
65329;BME280;51941;52.210;5.158;2024-03-08T04:54:32;101660.56;;;-0.10;78.35
65329;BME280;51941;52.210;5.158;2024-03-08T04:57:01;101663.25;;;-0.15;78.43
65329;BME280;51941;52.210;5.158;2024-03-08T04:59:30;101660.31;;;-0.14;78.43
65329;BME280;51941;52.210;5.158;2024-03-08T05:01:57;101652.34;;;-0.09;78.30
65329;BME280;51941;52.210;5.158;2024-03-08T05:04:24;101661.91;;;-0.13;78.38
65329;BME280;51941;52.210;5.158;2024-03-08T05:06:51;101649.94;;;-0.05;78.06
65329;BME280;51941;52.210;5.158;2024-03-08T05:09:19;101659.19;;;-0.03;78.13
65329;BME280;51941;52.210;5.158;2024-03-08T05:11:46;101645.66;;;-0.01;77.90
65329;BME280;51941;52.210;5.158;2024-03-08T05:14:15;101644.91;;;-0.07;77.38
65329;BME280;51941;52.210;5.158;2024-03-08T05:16:45;101646.94;;;0.02;77.44
65329;BME280;51941;52.210;5.158;2024-03-08T05:19:14;101643.00;;;-0.01;77.30
65329;BME280;51941;52.210;5.158;2024-03-08T05:21:42;101644.81;;;0.04;77.20
65329;BME280;51941;52.210;5.158;2024-03-08T05:24:10;101645.91;;;0.03;76.84
65329;BME280;51941;52.210;5.158;2024-03-08T05:26:37;101643.31;;;-0.08;77.17
65329;BME280;51941;52.210;5.158;2024-03-08T05:29:04;101641.63;;;0.07;76.69
65329;BME280;51941;52.210;5.158;2024-03-08T05:31:38;101640.03;;;0.06;76.38
65329;BME280;51941;52.210;5.158;2024-03-08T05:34:10;101634.69;;;0.11;76.43
65329;BME280;51941;52.210;5.158;2024-03-08T05:36:40;101634.97;;;0.09;76.20
65329;BME280;51941;52.210;5.158;2024-03-08T05:39:07;101631.28;;;0.10;76.29
65329;BME280;51941;52.210;5.158;2024-03-08T05:41:36;101631.28;;;0.10;76.14
65329;BME280;51941;52.210;5.158;2024-03-08T05:44:04;101636.25;;;0.12;75.92
65329;BME280;51941;52.210;5.158;2024-03-08T05:46:33;101635.75;;;0.10;76.09
65329;BME280;51941;52.210;5.158;2024-03-08T05:49:01;101633.94;;;0.05;76.34
65329;BME280;51941;52.210;5.158;2024-03-08T05:51:31;101633.78;;;-0.04;76.23
65329;BME280;51941;52.210;5.158;2024-03-08T05:54:00;101633.19;;;-0.01;76.29
65329;BME280;51941;52.210;5.158;2024-03-08T05:56:28;101630.97;;;0.12;75.67
65329;BME280;51941;52.210;5.158;2024-03-08T05:58:55;101623.53;;;0.14;75.68
65329;BME280;51941;52.210;5.158;2024-03-08T06:01:24;101630.69;;;0.13;75.46
65329;BME280;51941;52.210;5.158;2024-03-08T06:03:52;101627.25;;;0.13;75.14
65329;BME280;51941;52.210;5.158;2024-03-08T06:06:21;101621.69;;;0.14;75.31
65329;BME280;51941;52.210;5.158;2024-03-08T06:08:48;101623.03;;;0.12;75.29
65329;BME280;51941;52.210;5.158;2024-03-08T06:11:16;101617.44;;;0.13;75.27
65329;BME280;51941;52.210;5.158;2024-03-08T06:13:43;101618.31;;;0.09;75.46
65329;BME280;51941;52.210;5.158;2024-03-08T06:16:11;101606.59;;;0.15;75.05
65329;BME280;51941;52.210;5.158;2024-03-08T06:18:38;101614.03;;;0.13;75.15
65329;BME280;51941;52.210;5.158;2024-03-08T06:21:08;101618.03;;;0.10;75.11
65329;BME280;51941;52.210;5.158;2024-03-08T06:23:37;101616.09;;;0.16;75.18
65329;BME280;51941;52.210;5.158;2024-03-08T06:26:04;101609.97;;;0.21;75.13
65329;BME280;51941;52.210;5.158;2024-03-08T06:28:32;101615.22;;;0.26;74.88
65329;BME280;51941;52.210;5.158;2024-03-08T06:31:00;101619.97;;;0.29;74.55
65329;BME280;51941;52.210;5.158;2024-03-08T06:33:27;101609.09;;;0.30;74.70
65329;BME280;51941;52.210;5.158;2024-03-08T06:35:54;101606.09;;;0.37;74.37
65329;BME280;51941;52.210;5.158;2024-03-08T06:38:24;101608.44;;;0.44;74.23
65329;BME280;51941;52.210;5.158;2024-03-08T06:40:51;101602.00;;;0.50;73.91
65329;BME280;51941;52.210;5.158;2024-03-08T06:43:18;101599.53;;;0.53;73.55
65329;BME280;51941;52.210;5.158;2024-03-08T06:45:45;101603.50;;;0.56;73.78
65329;BME280;51941;52.210;5.158;2024-03-08T06:48:14;101610.38;;;0.81;73.18
65329;BME280;51941;52.210;5.158;2024-03-08T06:50:43;101611.41;;;1.04;72.04
65329;BME280;51941;52.210;5.158;2024-03-08T06:53:10;101598.44;;;1.41;71.57
65329;BME280;51941;52.210;5.158;2024-03-08T06:55:39;101596.22;;;1.81;69.94
65329;BME280;51941;52.210;5.158;2024-03-08T06:58:06;101596.69;;;2.15;68.18
65329;BME280;51941;52.210;5.158;2024-03-08T07:00:33;101596.41;;;2.45;67.41
65329;BME280;51941;52.210;5.158;2024-03-08T07:03:01;101593.94;;;2.76;66.62
65329;BME280;51941;52.210;5.158;2024-03-08T07:05:28;101589.25;;;3.09;66.01
65329;BME280;51941;52.210;5.158;2024-03-08T07:07:55;101588.88;;;3.25;64.74
65329;BME280;51941;52.210;5.158;2024-03-08T07:10:22;101583.97;;;3.54;64.15
65329;BME280;51941;52.210;5.158;2024-03-08T07:12:51;101584.78;;;3.64;62.87
65329;BME280;51941;52.210;5.158;2024-03-08T07:15:19;101585.22;;;3.57;63.34
65329;BME280;51941;52.210;5.158;2024-03-08T07:17:46;101578.91;;;3.98;62.67
65329;BME280;51941;52.210;5.158;2024-03-08T07:20:14;101583.97;;;3.54;60.89
65329;BME280;51941;52.210;5.158;2024-03-08T07:22:44;101584.91;;;3.81;60.63
65329;BME280;51941;52.210;5.158;2024-03-08T07:25:12;101590.22;;;4.44;60.46
65329;BME280;51941;52.210;5.158;2024-03-08T07:27:47;101573.56;;;4.47;58.97
65329;BME280;51941;52.210;5.158;2024-03-08T07:30:15;101571.00;;;4.90;58.27
65329;BME280;51941;52.210;5.158;2024-03-08T07:32:59;101572.47;;;5.05;58.93
65329;BME280;51941;52.210;5.158;2024-03-08T07:35:27;101569.66;;;5.10;57.58
65329;BME280;51941;52.210;5.158;2024-03-08T07:37:54;101567.13;;;5.05;57.55
65329;BME280;51941;52.210;5.158;2024-03-08T07:40:21;101561.16;;;5.17;57.71
65329;BME280;51941;52.210;5.158;2024-03-08T07:42:48;101561.16;;;5.08;56.64
65329;BME280;51941;52.210;5.158;2024-03-08T07:45:17;101554.72;;;5.09;57.84
65329;BME280;51941;52.210;5.158;2024-03-08T07:47:44;101550.47;;;5.34;56.14
65329;BME280;51941;52.210;5.158;2024-03-08T07:50:11;101550.75;;;5.33;56.91
65329;BME280;51941;52.210;5.158;2024-03-08T07:52:41;101547.44;;;5.45;55.74
65329;BME280;51941;52.210;5.158;2024-03-08T07:55:09;101544.88;;;5.74;55.67
65329;BME280;51941;52.210;5.158;2024-03-08T07:57:36;101542.56;;;5.56;55.75
65329;BME280;51941;52.210;5.158;2024-03-08T08:00:05;101542.66;;;5.85;54.54
65329;BME280;51941;52.210;5.158;2024-03-08T08:02:36;101535.91;;;5.70;53.86
65329;BME280;51941;52.210;5.158;2024-03-08T08:05:03;101539.13;;;6.02;54.57
65329;BME280;51941;52.210;5.158;2024-03-08T08:07:30;101543.53;;;5.98;54.00
65329;BME280;51941;52.210;5.158;2024-03-08T08:09:57;101533.13;;;5.58;54.95
65329;BME280;51941;52.210;5.158;2024-03-08T08:12:24;101533.03;;;5.93;54.12
65329;BME280;51941;52.210;5.158;2024-03-08T08:14:51;101539.94;;;5.94;53.83
65329;BME280;51941;52.210;5.158;2024-03-08T08:17:18;101531.44;;;5.92;54.45
65329;BME280;51941;52.210;5.158;2024-03-08T08:19:46;101526.09;;;6.01;53.29
65329;BME280;51941;52.210;5.158;2024-03-08T08:22:14;101524.69;;;5.39;54.76
65329;BME280;51941;52.210;5.158;2024-03-08T08:24:40;101519.81;;;4.71;56.79
65329;BME280;51941;52.210;5.158;2024-03-08T08:27:07;101519.19;;;4.08;58.74
65329;BME280;51941;52.210;5.158;2024-03-08T08:29:34;101515.22;;;3.96;59.64
65329;BME280;51941;52.210;5.158;2024-03-08T08:32:02;101518.47;;;3.85;60.08
65329;BME280;51941;52.210;5.158;2024-03-08T08:34:29;101510.41;;;3.76;60.14
65329;BME280;51941;52.210;5.158;2024-03-08T08:37:00;101503.50;;;3.66;60.98
65329;BME280;51941;52.210;5.158;2024-03-08T08:39:27;101506.00;;;3.71;60.98
65329;BME280;51941;52.210;5.158;2024-03-08T08:41:54;101500.38;;;3.73;60.68
65329;BME280;51941;52.210;5.158;2024-03-08T08:44:23;101504.38;;;3.53;61.54
65329;BME280;51941;52.210;5.158;2024-03-08T08:46:51;101506.00;;;3.71;60.95
65329;BME280;51941;52.210;5.158;2024-03-08T08:49:19;101497.75;;;3.82;60.69
65329;BME280;51941;52.210;5.158;2024-03-08T08:51:49;101491.16;;;3.79;61.44
65329;BME280;51941;52.210;5.158;2024-03-08T08:54:18;101496.38;;;3.84;60.99
65329;BME280;51941;52.210;5.158;2024-03-08T08:56:46;101491.06;;;3.93;60.67
65329;BME280;51941;52.210;5.158;2024-03-08T08:59:13;101490.00;;;3.94;60.71
65329;BME280;51941;52.210;5.158;2024-03-08T09:01:40;101481.84;;;3.99;60.35
65329;BME280;51941;52.210;5.158;2024-03-08T09:04:07;101482.47;;;3.96;60.69
65329;BME280;51941;52.210;5.158;2024-03-08T09:06:34;101472.94;;;4.04;60.32
65329;BME280;51941;52.210;5.158;2024-03-08T09:09:01;101481.53;;;4.01;60.37
65329;BME280;51941;52.210;5.158;2024-03-08T09:11:30;101477.34;;;4.17;60.36
65329;BME280;51941;52.210;5.158;2024-03-08T09:13:57;101475.94;;;4.20;60.21
65329;BME280;51941;52.210;5.158;2024-03-08T09:16:24;101471.94;;;3.91;61.42
65329;BME280;51941;52.210;5.158;2024-03-08T09:18:52;101458.53;;;4.13;60.14
65329;BME280;51941;52.210;5.158;2024-03-08T09:21:19;101459.66;;;4.30;59.97
65329;BME280;51941;52.210;5.158;2024-03-08T09:23:46;101460.13;;;4.32;59.51
65329;BME280;51941;52.210;5.158;2024-03-08T09:26:13;101457.28;;;4.37;59.92
65329;BME280;51941;52.210;5.158;2024-03-08T09:28:42;101446.19;;;4.44;60.04
65329;BME280;51941;52.210;5.158;2024-03-08T09:31:09;101445.25;;;4.57;59.81
65329;BME280;51941;52.210;5.158;2024-03-08T09:33:36;101440.22;;;4.64;59.51
65329;BME280;51941;52.210;5.158;2024-03-08T09:36:05;101444.28;;;4.70;59.44
65329;BME280;51941;52.210;5.158;2024-03-08T09:38:33;101437.72;;;4.77;59.51
65329;BME280;51941;52.210;5.158;2024-03-08T09:41:00;101441.81;;;4.83;59.72
65329;BME280;51941;52.210;5.158;2024-03-08T09:43:29;101434.13;;;4.99;58.56
65329;BME280;51941;52.210;5.158;2024-03-08T09:45:59;101419.34;;;5.01;58.51
65329;BME280;51941;52.210;5.158;2024-03-08T09:48:26;101419.50;;;4.96;58.94
65329;BME280;51941;52.210;5.158;2024-03-08T09:50:54;101409.25;;;5.15;58.11
65329;BME280;51941;52.210;5.158;2024-03-08T09:53:22;101411.28;;;5.19;58.08
65329;BME280;51941;52.210;5.158;2024-03-08T09:55:49;101408.94;;;5.26;58.17
65329;BME280;51941;52.210;5.158;2024-03-08T09:58:17;101410.94;;;5.29;57.92
65329;BME280;51941;52.210;5.158;2024-03-08T10:01:03;101401.34;;;5.37;57.75
65329;BME280;51941;52.210;5.158;2024-03-08T10:03:31;101404.69;;;5.25;57.82
65329;BME280;51941;52.210;5.158;2024-03-08T10:05:59;101390.50;;;5.42;57.56
65329;BME280;51941;52.210;5.158;2024-03-08T10:08:26;101382.19;;;5.34;57.59
65329;BME280;51941;52.210;5.158;2024-03-08T10:10:55;101377.53;;;5.52;56.92
65329;BME280;51941;52.210;5.158;2024-03-08T10:13:25;101380.81;;;5.58;56.75
65329;BME280;51941;52.210;5.158;2024-03-08T10:15:53;101376.09;;;5.64;56.72
65329;BME280;51941;52.210;5.158;2024-03-08T10:18:26;101368.34;;;5.71;57.21
65329;BME280;51941;52.210;5.158;2024-03-08T10:21:03;101358.06;;;5.82;56.60
65329;BME280;51941;52.210;5.158;2024-03-08T10:23:31;101354.16;;;5.79;55.95
65329;BME280;51941;52.210;5.158;2024-03-08T10:26:09;101354.59;;;5.81;56.33
65329;BME280;51941;52.210;5.158;2024-03-08T10:28:36;101350.81;;;5.82;55.91
65329;BME280;51941;52.210;5.158;2024-03-08T10:31:03;101358.34;;;5.89;56.38
65329;BME280;51941;52.210;5.158;2024-03-08T10:33:33;101338.47;;;5.99;56.36
65329;BME280;51941;52.210;5.158;2024-03-08T10:36:00;101333.09;;;5.99;56.34
65329;BME280;51941;52.210;5.158;2024-03-08T10:38:31;101332.84;;;6.12;55.14
65329;BME280;51941;52.210;5.158;2024-03-08T10:40:59;101325.72;;;6.17;55.28
65329;BME280;51941;52.210;5.158;2024-03-08T10:43:28;101317.94;;;6.24;54.81
65329;BME280;51941;52.210;5.158;2024-03-08T10:46:08;101317.13;;;6.32;55.04
65329;BME280;51941;52.210;5.158;2024-03-08T10:48:45;101306.97;;;6.38;54.95
65329;BME280;51941;52.210;5.158;2024-03-08T10:51:16;101307.63;;;6.34;55.25
65329;BME280;51941;52.210;5.158;2024-03-08T10:53:44;101289.25;;;6.45;54.52
65329;BME280;51941;52.210;5.158;2024-03-08T10:56:12;101285.28;;;6.51;54.63
65329;BME280;51941;52.210;5.158;2024-03-08T10:58:40;101281.81;;;6.51;54.73
65329;BME280;51941;52.210;5.158;2024-03-08T11:01:09;101278.81;;;6.52;54.81
65329;BME280;51941;52.210;5.158;2024-03-08T11:03:48;101278.63;;;6.70;54.38
65329;BME280;51941;52.210;5.158;2024-03-08T11:06:22;101277.44;;;6.80;53.36
65329;BME280;51941;52.210;5.158;2024-03-08T11:08:50;101262.34;;;6.75;52.83
65329;BME280;51941;52.210;5.158;2024-03-08T11:11:24;101268.72;;;6.83;52.98
65329;BME280;51941;52.210;5.158;2024-03-08T11:13:57;101260.25;;;6.93;52.73
65329;BME280;51941;52.210;5.158;2024-03-08T11:16:38;101257.34;;;6.98;52.44
65329;BME280;51941;52.210;5.158;2024-03-08T11:19:23;101241.84;;;7.04;53.03
65329;BME280;51941;52.210;5.158;2024-03-08T11:24:39;101246.84;;;7.18;52.72
65329;BME280;51941;52.210;5.158;2024-03-08T11:27:10;101231.56;;;7.06;52.98
65329;BME280;51941;52.210;5.158;2024-03-08T11:29:38;101231.22;;;7.20;52.00
65329;BME280;51941;52.210;5.158;2024-03-08T11:32:10;101237.03;;;7.22;51.73
65329;BME280;51941;52.210;5.158;2024-03-08T11:34:39;101219.59;;;7.28;51.87
65329;BME280;51941;52.210;5.158;2024-03-08T11:37:06;101218.03;;;7.39;51.85
65329;BME280;51941;52.210;5.158;2024-03-08T11:39:39;101215.50;;;7.30;51.35
65329;BME280;51941;52.210;5.158;2024-03-08T11:42:06;101198.16;;;7.40;51.71
65329;BME280;51941;52.210;5.158;2024-03-08T11:44:33;101195.91;;;7.55;50.99
65329;BME280;51941;52.210;5.158;2024-03-08T11:47:01;101187.19;;;7.58;51.06
65329;BME280;51941;52.210;5.158;2024-03-08T11:49:31;101176.44;;;7.58;50.81
65329;BME280;51941;52.210;5.158;2024-03-08T11:52:01;101174.31;;;7.63;51.63
65329;BME280;51941;52.210;5.158;2024-03-08T11:54:28;101168.63;;;7.65;51.14
65329;BME280;51941;52.210;5.158;2024-03-08T11:56:56;101170.81;;;7.75;50.19
65329;BME280;51941;52.210;5.158;2024-03-08T11:59:27;101151.69;;;7.77;50.22
65329;BME280;51941;52.210;5.158;2024-03-08T12:02:00;101157.69;;;7.86;49.89
65329;BME280;51941;52.210;5.158;2024-03-08T12:04:27;101148.94;;;7.89;50.26
65329;BME280;51941;52.210;5.158;2024-03-08T12:06:54;101155.47;;;7.88;50.36
65329;BME280;51941;52.210;5.158;2024-03-08T12:09:23;101141.88;;;7.97;50.12
65329;BME280;51941;52.210;5.158;2024-03-08T12:11:50;101128.56;;;8.00;49.50
65329;BME280;51941;52.210;5.158;2024-03-08T12:14:17;101131.16;;;8.12;50.08
65329;BME280;51941;52.210;5.158;2024-03-08T12:16:44;101126.75;;;8.20;49.44
65329;BME280;51941;52.210;5.158;2024-03-08T12:19:12;101122.97;;;8.21;48.95
65329;BME280;51941;52.210;5.158;2024-03-08T12:21:39;101119.50;;;8.21;48.69
65329;BME280;51941;52.210;5.158;2024-03-08T12:24:15;101114.38;;;8.31;48.86
65329;BME280;51941;52.210;5.158;2024-03-08T12:26:46;101111.78;;;8.35;48.67
65329;BME280;51941;52.210;5.158;2024-03-08T12:29:16;101109.63;;;8.41;49.46
65329;BME280;51941;52.210;5.158;2024-03-08T12:31:46;101098.34;;;8.51;47.55
65329;BME280;51941;52.210;5.158;2024-03-08T12:34:13;101106.50;;;8.55;47.40
65329;BME280;51941;52.210;5.158;2024-03-08T12:36:45;101096.59;;;8.59;47.42
65329;BME280;51941;52.210;5.158;2024-03-08T12:39:16;101096.31;;;8.64;47.30
65329;BME280;51941;52.210;5.158;2024-03-08T12:41:49;101100.91;;;8.63;46.66
65329;BME280;51941;52.210;5.158;2024-03-08T12:44:17;101089.94;;;8.52;46.66
65329;BME280;51941;52.210;5.158;2024-03-08T12:46:46;101089.75;;;8.61;46.79
65329;BME280;51941;52.210;5.158;2024-03-08T12:49:13;101090.19;;;8.63;46.79
65329;BME280;51941;52.210;5.158;2024-03-08T12:51:43;101075.25;;;8.66;46.73
65329;BME280;51941;52.210;5.158;2024-03-08T12:54:10;101073.09;;;8.71;47.13
65329;BME280;51941;52.210;5.158;2024-03-08T12:56:38;101074.53;;;8.85;47.15
65329;BME280;51941;52.210;5.158;2024-03-08T12:59:08;101064.78;;;8.96;47.12
65329;BME280;51941;52.210;5.158;2024-03-08T13:01:35;101063.31;;;8.99;46.30
65329;BME280;51941;52.210;5.158;2024-03-08T13:04:04;101060.28;;;9.00;46.59
65329;BME280;51941;52.210;5.158;2024-03-08T13:06:32;101070.25;;;9.00;46.35
65329;BME280;51941;52.210;5.158;2024-03-08T13:08:59;101061.25;;;8.92;45.66